Time;durP1;ratioP1;P1;durP2;ratioP2;P2;SDS_P1;SDS_P2;PMS_P1;PMS_P2;Temp;Humidity;BMP_temperature;BMP_pressure;BME280_temperature;BME280_humidity;BME280_pressure;Samples;Min_cycle;Max_cycle;Signal;HPM_P1;HPM_P2
2023/03/10 00:01:23;;;;;;;22.35;9.07;;;;;;;12.67;100.00;97845.03;5073590;28;20044;-93
2023/03/10 00:03:49;;;;;;;30.30;10.57;;;;;;;12.59;100.00;97836.56;5074533;28;20048;-94
2023/03/10 00:06:17;;;;;;;31.30;12.75;;;;;;;12.60;100.00;97843.59;5074004;28;20062;-94
2023/03/10 00:08:43;;;;;;;31.75;14.27;;;;;;;12.62;100.00;97857.72;5073364;28;20044;-94
2023/03/10 00:11:10;;;;;;;34.72;12.23;;;;;;;12.48;100.00;97827.28;5074195;28;20580;-94
2023/03/10 00:13:37;;;;;;;38.72;16.40;;;;;;;12.48;100.00;97837.94;5074042;28;20040;-94
2023/03/10 00:16:05;;;;;;;33.72;15.25;;;;;;;12.43;100.00;97834.66;5073367;28;20045;-95
2023/03/10 00:18:33;;;;;;;27.60;13.10;;;;;;;12.45;100.00;97838.13;5074182;28;20452;-92
2023/03/10 00:20:59;;;;;;;30.93;13.03;;;;;;;12.52;100.00;97866.19;5074054;28;20041;-93
2023/03/10 00:23:25;;;;;;;26.83;10.82;;;;;;;12.33;100.00;97834.22;5074559;28;20131;-93
2023/03/10 00:25:54;;;;;;;26.08;11.80;;;;;;;12.39;100.00;97854.41;5074852;28;20052;-93
2023/03/10 00:28:20;;;;;;;24.63;9.95;;;;;;;12.38;100.00;97846.47;5074248;28;20128;-93
2023/03/10 00:30:56;;;;;;;29.75;9.93;;;;;;;12.40;100.00;97845.44;5073627;28;20040;-92
2023/03/10 00:33:22;;;;;;;24.35;10.60;;;;;;;12.29;100.00;97826.47;5073708;28;20045;-92
2023/03/10 00:35:58;;;;;;;29.67;10.82;;;;;;;12.44;100.00;97841.69;5074517;28;20099;-93
2023/03/10 00:38:24;;;;;;;27.88;10.00;;;;;;;12.40;100.00;97825.94;5073826;28;20059;-92
2023/03/10 00:40:57;;;;;;;23.40;9.43;;;;;;;12.37;100.00;97818.09;5074027;28;20044;-93
2023/03/10 00:43:23;;;;;;;22.42;10.45;;;;;;;12.22;100.00;97798.41;5074246;28;20144;-92
2023/03/10 00:45:48;;;;;;;22.98;10.90;;;;;;;12.24;100.00;97831.16;5074840;28;20056;-93
2023/03/10 00:48:14;;;;;;;30.75;10.52;;;;;;;12.08;100.00;97818.59;5075045;28;20051;-92
2023/03/10 00:50:40;;;;;;;27.42;11.50;;;;;;;12.03;100.00;97827.72;5074301;28;20547;-92
2023/03/10 00:53:07;;;;;;;33.25;12.02;;;;;;;12.04;100.00;97818.81;5074609;28;20036;-93
2023/03/10 00:55:33;;;;;;;30.88;10.60;;;;;;;11.97;100.00;97809.38;5075481;28;20068;-94
2023/03/10 00:57:59;;;;;;;26.27;10.85;;;;;;;12.15;100.00;97834.28;5074766;28;20431;-93
2023/03/10 01:00:25;;;;;;;28.90;11.52;;;;;;;12.15;100.00;97828.97;5073228;28;20555;-93
2023/03/10 01:02:51;;;;;;;24.95;10.60;;;;;;;12.17;100.00;97816.41;5074274;28;20064;-94
2023/03/10 01:05:17;;;;;;;26.08;10.57;;;;;;;12.07;100.00;97792.88;5073730;28;20043;-94
2023/03/10 01:07:43;;;;;;;28.25;11.25;;;;;;;12.20;100.00;97816.25;5073632;28;20131;-94
2023/03/10 01:10:13;;;;;;;26.55;10.38;;;;;;;12.12;100.00;97806.84;5074064;28;20061;-94
2023/03/10 01:12:39;;;;;;;23.98;10.35;;;;;;;12.02;100.00;97775.41;5073384;28;20686;-93
2023/03/10 01:15:07;;;;;;;24.10;10.68;;;;;;;12.12;100.00;97797.97;5073238;28;20049;-94
2023/03/10 01:17:33;;;;;;;31.67;10.60;;;;;;;12.07;100.00;97779.53;5070877;28;20044;-93
2023/03/10 01:19:58;;;;;;;25.05;11.32;;;;;;;12.11;100.00;97791.78;5072635;28;20056;-93
2023/03/10 01:22:24;;;;;;;26.58;11.05;;;;;;;12.06;100.00;97777.81;5074600;28;20109;-95
2023/03/10 01:24:50;;;;;;;22.67;10.57;;;;;;;12.02;100.00;97760.25;5073617;28;20037;-93
2023/03/10 01:27:17;;;;;;;24.50;10.43;;;;;;;12.10;100.00;97771.41;5076189;28;20049;-90
2023/03/10 01:29:43;;;;;;;28.90;10.50;;;;;;;12.20;100.00;97777.13;5078162;28;20064;-93
2023/03/10 01:32:09;;;;;;;24.83;10.90;;;;;;;12.03;100.00;97750.47;5077591;28;20612;-94
2023/03/10 01:34:35;;;;;;;24.30;10.70;;;;;;;12.17;100.00;97773.78;5077723;28;20040;-94
2023/03/10 01:37:01;;;;;;;25.45;10.27;;;;;;;12.09;100.00;97753.69;5077404;28;20468;-95
2023/03/10 01:39:27;;;;;;;33.28;10.15;;;;;;;12.05;100.00;97748.59;5076931;28;20131;-92
2023/03/10 01:41:53;;;;;;;28.60;10.23;;;;;;;12.23;100.00;97762.78;5074128;28;20456;-93
2023/03/10 01:44:20;;;;;;;26.52;9.70;;;;;;;12.21;100.00;97760.22;5077793;28;20059;-93
2023/03/10 01:46:48;;;;;;;25.08;10.73;;;;;;;12.17;100.00;97736.47;5075918;28;20106;-92
2023/03/10 01:49:35;;;;;;;24.30;9.85;;;;;;;12.28;100.00;97750.97;5076705;28;20051;-93
2023/03/10 01:52:06;;;;;;;19.65;9.85;;;;;;;12.19;100.00;97726.56;5076974;28;20072;-92
2023/03/10 01:54:39;;;;;;;29.20;10.68;;;;;;;12.15;100.00;97717.03;5076302;28;20051;-94
2023/03/10 01:57:06;;;;;;;23.50;9.27;;;;;;;12.07;100.00;97704.94;5076295;28;20123;-93
2023/03/10 01:59:34;;;;;;;25.48;9.55;;;;;;;12.17;100.00;97696.50;5075577;28;20048;-92
2023/03/10 02:02:01;;;;;;;23.30;9.93;;;;;;;12.15;100.00;97691.22;5076083;28;20506;-92
2023/03/10 02:04:33;;;;;;;23.27;10.10;;;;;;;12.19;100.00;97707.91;5076785;28;20036;-93
2023/03/10 02:07:00;;;;;;;29.25;10.00;;;;;;;12.17;100.00;97702.69;5076924;28;20064;-94
2023/03/10 02:09:27;;;;;;;26.05;9.95;;;;;;;12.15;100.00;97693.91;5076446;28;20064;-93
2023/03/10 02:11:55;;;;;;;24.13;10.13;;;;;;;12.23;100.00;97702.38;5076270;28;20036;-93
2023/03/10 02:14:21;;;;;;;26.50;9.35;;;;;;;12.23;100.00;97699.72;5075510;28;20036;-94
2023/03/10 02:16:49;;;;;;;23.98;10.98;;;;;;;12.09;100.00;97671.06;5075553;28;20139;-91
2023/03/10 02:19:29;;;;;;;20.15;9.27;;;;;;;12.23;100.00;97699.72;5072847;28;20128;-93
2023/03/10 02:22:04;;;;;;;25.42;9.50;;;;;;;12.20;100.00;97691.84;5075116;28;20062;-93
2023/03/10 02:24:38;;;;;;;21.33;9.95;;;;;;;12.21;100.00;97692.69;5076336;28;20045;-94
2023/03/10 02:27:13;;;;;;;24.17;9.10;;;;;;;12.17;100.00;97680.50;5075783;28;20051;-93
2023/03/10 02:29:42;;;;;;;26.90;8.95;;;;;;;12.20;100.00;97683.00;5075016;28;20165;-94
2023/03/10 02:32:08;;;;;;;22.30;9.38;;;;;;;12.18;100.00;97682.22;5075280;28;20452;-93
2023/03/10 02:34:34;;;;;;;23.67;9.02;;;;;;;12.14;100.00;97678.81;5076014;28;20036;-93
2023/03/10 02:37:00;;;;;;;18.45;9.15;;;;;;;12.15;100.00;97685.03;5075662;28;20112;-92
2023/03/10 02:39:26;;;;;;;22.90;9.45;;;;;;;12.00;100.00;97657.38;5075891;28;20048;-92
2023/03/10 02:41:52;;;;;;;24.77;9.43;;;;;;;12.00;100.00;97671.53;5076575;28;20117;-92
2023/03/10 02:44:22;;;;;;;20.23;8.52;;;;;;;12.12;100.00;97694.03;5076622;28;20054;-93
2023/03/10 02:46:48;;;;;;;23.73;9.00;;;;;;;12.06;100.00;97673.06;5074681;28;20044;-94
2023/03/10 02:49:16;;;;;;;25.30;9.40;;;;;;;12.16;100.00;97676.94;5075871;28;20143;-93
2023/03/10 02:51:44;;;;;;;26.95;10.25;;;;;;;12.14;100.00;97692.16;5076840;28;20044;-91
2023/03/10 02:54:11;;;;;;;25.75;9.50;;;;;;;12.09;100.00;97681.72;5074310;28;20047;-93
2023/03/10 02:56:38;;;;;;;25.20;10.20;;;;;;;12.11;100.00;97687.84;5076304;28;20044;-92
2023/03/10 02:59:05;;;;;;;19.20;9.38;;;;;;;11.94;100.00;97645.22;5077489;28;20041;-93
2023/03/10 03:01:33;;;;;;;19.52;8.63;;;;;;;11.99;100.00;97653.84;5074897;28;20098;-92
2023/03/10 03:04:02;;;;;;;25.23;9.02;;;;;;;12.03;100.00;97658.06;5075540;28;20040;-93
2023/03/10 03:06:28;;;;;;;29.08;10.07;;;;;;;12.10;100.00;97662.16;5076238;28;20041;-93
2023/03/10 03:08:54;;;;;;;24.67;10.32;;;;;;;12.02;100.00;97642.16;5075936;28;20033;-94
2023/03/10 03:11:19;;;;;;;27.27;10.23;;;;;;;11.91;100.00;97629.38;5076009;28;20094;-95
2023/03/10 03:13:45;;;;;;;22.90;9.82;;;;;;;11.92;100.00;97631.94;5075224;28;20048;-94
2023/03/10 03:16:12;;;;;;;24.27;9.05;;;;;;;11.95;100.00;97640.72;5075267;28;20051;-93
2023/03/10 03:18:40;;;;;;;23.45;9.68;;;;;;;11.99;100.00;97636.97;5075296;28;20048;-95
2023/03/10 03:21:07;;;;;;;23.70;10.30;;;;;;;11.89;100.00;97631.28;5076222;28;20040;-94
2023/03/10 03:23:33;;;;;;;25.02;9.65;;;;;;;11.90;100.00;97633.84;5071254;28;20045;-93
2023/03/10 03:25:59;;;;;;;24.35;9.25;;;;;;;11.88;100.00;97629.53;5076500;28;20032;-96
2023/03/10 03:28:25;;;;;;;23.20;9.02;;;;;;;11.70;100.00;97602.84;5075252;28;20059;-94
2023/03/10 03:30:51;;;;;;;19.60;9.75;;;;;;;11.63;100.00;97597.94;5072337;28;20049;-94
2023/03/10 03:33:17;;;;;;;26.75;9.77;;;;;;;11.59;100.00;97591.88;5074685;28;20111;-95
2023/03/10 03:35:44;;;;;;;23.83;9.93;;;;;;;11.65;100.00;97623.53;5075194;28;20041;-94
2023/03/10 03:38:10;;;;;;;23.27;9.85;;;;;;;11.62;100.00;97623.66;5075673;28;20040;-96
2023/03/10 03:40:37;;;;;;;19.50;9.20;;;;;;;11.56;100.00;97608.03;5074351;28;20524;-95
2023/03/10 03:43:03;;;;;;;23.45;9.00;;;;;;;11.50;100.00;97598.53;5074983;28;20040;-95
2023/03/10 03:45:31;;;;;;;19.75;8.80;;;;;;;11.63;100.00;97614.75;5074283;28;20131;-93
2023/03/10 03:47:57;;;;;;;23.58;8.77;;;;;;;11.67;100.00;97613.66;5075342;28;20059;-95
2023/03/10 03:50:24;;;;;;;21.10;8.98;;;;;;;11.53;100.00;97584.19;5074249;28;20068;-94
2023/03/10 03:57:09;;;;;;;18.73;8.63;;;;;;;11.72;100.00;97602.78;5064526;28;20405;-94
2023/03/10 03:59:44;;;;;;;17.52;7.60;;;;;;;11.66;100.00;97590.63;5072233;28;20052;-95
2023/03/10 04:02:09;;;;;;;18.60;8.25;;;;;;;11.70;100.00;97599.34;5073579;28;20044;-94
2023/03/10 04:04:35;;;;;;;20.98;7.47;;;;;;;11.61;100.00;97587.34;5074806;28;20040;-94
2023/03/10 04:07:01;;;;;;;22.88;8.52;;;;;;;11.72;100.00;97595.66;5076265;28;20117;-93
2023/03/10 04:09:29;;;;;;;14.98;7.32;;;;;;;11.70;100.00;97589.53;5074171;28;20075;-93
2023/03/10 04:11:55;;;;;;;20.08;7.63;;;;;;;11.75;100.00;97585.78;5072557;28;20044;-95
2023/03/10 04:14:21;;;;;;;24.23;8.07;;;;;;;11.79;100.00;97593.53;5074817;28;20403;-94
2023/03/10 04:16:47;;;;;;;15.20;6.70;;;;;;;11.77;100.00;97586.56;5073878;28;20131;-94
2023/03/10 04:19:13;;;;;;;19.73;7.43;;;;;;;11.68;100.00;97571.91;5073689;28;20052;-94
2023/03/10 04:21:39;;;;;;;22.35;8.10;;;;;;;11.75;100.00;97583.97;5073680;28;20075;-94
2023/03/10 04:24:06;;;;;;;15.88;6.80;;;;;;;11.76;100.00;97576.88;5073380;28;20076;-94
2023/03/10 04:26:33;;;;;;;14.60;6.97;;;;;;;11.67;100.00;97563.06;5073779;28;20135;-94
2023/03/10 04:28:59;;;;;;;20.55;7.22;;;;;;;11.82;100.00;97590.72;5073872;28;20097;-94
2023/03/10 04:31:26;;;;;;;15.60;7.25;;;;;;;11.76;100.00;97575.06;5073003;28;20037;-93
2023/03/10 04:33:52;;;;;;;19.23;7.60;;;;;;;11.78;100.00;97585.66;5073626;28;20051;-94
2023/03/10 04:36:19;;;;;;;21.85;8.02;;;;;;;11.67;100.00;97563.06;5073755;28;20495;-93
2023/03/10 04:38:45;;;;;;;18.65;8.20;;;;;;;11.67;100.00;97546.25;5073783;28;20450;-93
2023/03/10 04:41:11;;;;;;;15.88;7.07;;;;;;;11.80;100.00;97567.78;5073498;28;20048;-92
2023/03/10 04:43:39;;;;;;;20.42;7.78;;;;;;;11.85;100.00;97560.41;5073498;28;20035;-95
2023/03/10 04:46:05;;;;;;;18.60;7.80;;;;;;;11.83;100.00;97557.81;5073405;28;20040;-95
2023/03/10 04:48:31;;;;;;;17.83;7.78;;;;;;;11.62;100.00;97527.81;5073880;28;20047;-93
2023/03/10 04:50:59;;;;;;;21.25;7.30;;;;;;;11.58;100.00;97539.59;5074530;28;20494;-94
2023/03/10 04:53:25;;;;;;;16.33;7.97;;;;;;;11.67;100.00;97564.88;5074091;28;20135;-92
2023/03/10 04:55:51;;;;;;;20.63;8.60;;;;;;;11.57;100.00;97556.47;5073939;28;20498;-94
2023/03/10 04:58:17;;;;;;;24.55;8.98;;;;;;;11.66;100.00;97557.81;5072606;28;20052;-94
2023/03/10 05:00:45;;;;;;;26.65;7.93;;;;;;;11.75;100.00;97559.16;5074846;28;20040;-95
2023/03/10 05:03:11;;;;;;;21.95;8.00;;;;;;;11.67;100.00;97546.25;5077732;28;20127;-93
2023/03/10 05:05:37;;;;;;;21.55;8.50;;;;;;;11.56;100.00;97517.50;5077326;28;20131;-94
2023/03/10 05:08:04;;;;;;;27.20;8.95;;;;;;;11.78;100.00;97548.34;5077557;28;20045;-95
2023/03/10 05:10:30;;;;;;;14.50;8.40;;;;;;;11.78;100.00;97554.53;5077436;28;20051;-94
2023/03/10 05:12:56;;;;;;;28.80;9.00;;;;;;;11.85;100.00;97545.28;5077602;28;20040;-94
2023/03/10 05:15:22;;;;;;;23.73;9.02;;;;;;;11.93;100.00;97552.91;5077026;28;20464;-94
2023/03/10 05:17:50;;;;;;;24.58;9.98;;;;;;;11.89;100.00;97546.03;5077115;28;20068;-93
2023/03/10 05:20:16;;;;;;;22.90;9.48;;;;;;;11.87;100.00;97539.88;5075507;28;20040;-95
2023/03/10 05:22:43;;;;;;;24.30;9.52;;;;;;;11.88;100.00;97541.63;5075223;28;20040;-94
2023/03/10 05:25:11;;;;;;;21.65;9.23;;;;;;;11.76;100.00;97510.28;5076575;28;20123;-94
2023/03/10 05:27:37;;;;;;;21.63;9.10;;;;;;;11.98;100.00;97540.22;5077073;28;20033;-94
2023/03/10 05:30:04;;;;;;;22.65;9.13;;;;;;;11.96;100.00;97526.09;5077157;28;20106;-93
2023/03/10 05:32:33;;;;;;;19.52;8.07;;;;;;;11.94;100.00;97511.16;5076963;28;20072;-94
2023/03/10 05:35:01;;;;;;;19.58;8.10;;;;;;;12.03;100.00;97511.50;5077235;28;20445;-92
2023/03/10 05:37:27;;;;;;;26.20;8.82;;;;;;;12.06;100.00;97521.16;5068572;28;20127;-94
2023/03/10 05:39:53;;;;;;;19.73;8.23;;;;;;;11.99;100.00;97509.09;5077427;28;20064;-93
2023/03/10 05:42:19;;;;;;;16.83;8.80;;;;;;;12.03;100.00;97505.31;5077458;28;20410;-95
2023/03/10 05:44:44;;;;;;;20.15;8.52;;;;;;;12.10;100.00;97502.25;5077886;28;20036;-94
2023/03/10 05:47:12;;;;;;;18.33;8.43;;;;;;;12.01;100.00;97483.22;5077026;28;20055;-95
2023/03/10 05:49:38;;;;;;;25.08;9.27;;;;;;;12.08;100.00;97500.63;5077523;28;20041;-95
2023/03/10 05:52:06;;;;;;;25.38;10.00;;;;;;;12.11;100.00;97500.47;5077405;28;20051;-93
2023/03/10 05:54:32;;;;;;;24.73;9.13;;;;;;;12.12;100.00;97507.50;5076287;28;20465;-95
2023/03/10 05:56:58;;;;;;;22.20;9.50;;;;;;;12.08;100.00;97506.81;5077412;28;20070;-95
2023/03/10 05:59:25;;;;;;;25.40;9.80;;;;;;;11.96;100.00;97487.94;5077710;28;20040;-94
2023/03/10 06:01:51;;;;;;;29.95;11.05;;;;;;;11.99;100.00;97494.00;5071501;28;20106;-95
2023/03/10 06:04:16;;;;;;;21.08;9.50;;;;;;;12.14;100.00;97516.25;5078133;28;20044;-95
2023/03/10 06:06:42;;;;;;;25.67;10.15;;;;;;;12.06;100.00;97500.72;5079144;28;20041;-94
2023/03/10 06:09:12;;;;;;;23.10;9.02;;;;;;;12.16;100.00;97513.53;5058163;28;20041;-95
2023/03/10 06:11:38;;;;;;;21.10;9.13;;;;;;;11.98;100.00;97491.41;5075262;28;20066;-94
2023/03/10 06:14:04;;;;;;;23.40;9.50;;;;;;;12.01;100.00;97489.41;5079159;28;20052;-94
2023/03/10 06:16:30;;;;;;;24.95;8.93;;;;;;;12.06;100.00;97484.72;5077692;28;20049;-95
2023/03/10 06:18:56;;;;;;;29.27;8.65;;;;;;;12.09;100.00;97479.22;5077699;28;20067;-95
2023/03/10 06:21:23;;;;;;;21.88;9.43;;;;;;;12.07;100.00;97474.91;5076740;28;20102;-95
2023/03/10 06:23:50;;;;;;;24.50;9.75;;;;;;;12.20;100.00;97486.63;5077683;28;20140;-94
2023/03/10 06:26:17;;;;;;;25.45;9.65;;;;;;;12.26;100.00;97482.78;5078088;28;20041;-95
2023/03/10 06:28:44;;;;;;;22.98;8.98;;;;;;;12.34;100.00;97483.22;5078000;28;20040;-96
2023/03/10 06:31:13;;;;;;;22.58;8.82;;;;;;;12.37;100.00;97477.72;5075988;28;20052;-94
2023/03/10 06:33:39;;;;;;;20.00;9.10;;;;;;;12.39;100.00;97470.50;5077813;28;20048;-94
2023/03/10 06:36:07;;;;;;;24.98;9.45;;;;;;;12.32;100.00;97442.47;5076398;28;20576;-92
2023/03/10 06:38:33;;;;;;;28.37;9.70;;;;;;;12.51;100.00;97459.16;5076511;28;20139;-95
2023/03/10 06:40:59;;;;;;;22.00;8.80;;;;;;;12.44;100.00;97428.44;5078926;28;20048;-93
2023/03/10 06:43:26;;;;;;;21.00;9.45;;;;;;;12.61;100.00;97429.31;5077660;28;20044;-94
2023/03/10 06:45:52;;;;;;;21.08;8.90;;;;;;;12.53;100.00;97414.59;5076972;28;20067;-92
2023/03/10 06:48:18;;;;;;;24.30;8.68;;;;;;;12.41;100.00;97423.28;5079195;28;20050;-94
2023/03/10 06:50:47;;;;;;;20.27;7.45;;;;;;;12.57;100.00;97444.59;5076358;28;20038;-94
2023/03/10 06:53:14;;;;;;;30.33;8.65;;;;;;;12.60;100.00;97433.78;5075979;28;20147;-95
2023/03/10 06:55:39;;;;;;;27.88;10.70;;;;;;;12.50;100.00;97428.09;5076635;28;20094;-93
2023/03/10 06:58:06;;;;;;;23.25;10.32;;;;;;;12.40;100.00;97421.56;5076268;28;20041;-96
2023/03/10 07:00:33;;;;;;;22.95;8.52;;;;;;;12.49;100.00;97439.72;5075530;28;20045;-94
2023/03/10 07:02:59;;;;;;;20.92;8.40;;;;;;;12.49;100.00;97425.50;5075768;28;20102;-94
2023/03/10 07:05:26;;;;;;;24.38;9.38;;;;;;;12.53;100.00;97421.72;5076073;28;20111;-96
2023/03/10 07:07:54;;;;;;;29.30;10.43;;;;;;;12.70;100.00;97431.44;5076540;28;20040;-95
2023/03/10 07:10:21;;;;;;;24.58;10.05;;;;;;;12.81;100.00;97437.00;5075652;28;20135;-94
2023/03/10 07:12:53;;;;;;;23.33;8.43;;;;;;;12.81;100.00;97444.16;5078191;28;20097;-93
2023/03/10 07:15:20;;;;;;;24.88;9.23;;;;;;;12.80;100.00;97432.63;5074142;28;20509;-94
2023/03/10 07:17:48;;;;;;;26.33;9.40;;;;;;;12.69;100.00;97405.72;5075726;28;20044;-96
2023/03/10 07:20:14;;;;;;;37.83;9.02;;;;;;;12.74;100.00;97396.50;5077105;28;20075;-95
2023/03/10 07:22:40;;;;;;;28.92;9.68;;;;;;;12.89;100.00;97426.75;5077254;28;20086;-94
2023/03/10 07:25:06;;;;;;;28.10;9.35;;;;;;;12.79;100.00;97412.22;5068439;28;20640;-92
2023/03/10 07:27:32;;;;;;;25.98;8.07;;;;;;;12.77;100.00;97408.78;5076579;28;20064;-96
2023/03/10 07:29:58;;;;;;;20.98;8.02;;;;;;;12.71;100.00;97398.50;5077141;28;20513;-93
2023/03/10 07:32:24;;;;;;;19.88;8.35;;;;;;;12.82;100.00;97408.56;5076507;28;20036;-93
2023/03/10 07:34:51;;;;;;;20.92;8.07;;;;;;;12.79;100.00;97409.56;5076584;28;20070;-95
2023/03/10 07:37:17;;;;;;;21.55;8.68;;;;;;;12.61;100.00;97386.63;5076869;28;20494;-93
2023/03/10 07:39:43;;;;;;;23.27;8.35;;;;;;;12.71;100.00;97406.50;5078567;28;20041;-95
2023/03/10 07:42:09;;;;;;;20.70;8.15;;;;;;;12.76;100.00;97399.09;5077719;28;20045;-94
2023/03/10 07:44:35;;;;;;;22.15;8.55;;;;;;;12.76;100.00;97383.06;5076137;28;20129;-94
2023/03/10 07:47:01;;;;;;;24.23;8.65;;;;;;;12.77;100.00;97383.94;5076947;28;20052;-94
2023/03/10 07:49:27;;;;;;;36.47;9.45;;;;;;;12.92;100.00;97402.59;5075963;28;20093;-93
2023/03/10 07:51:54;;;;;;;30.15;10.10;;;;;;;12.77;100.00;97374.13;5076467;28;20051;-93
2023/03/10 07:54:20;;;;;;;31.42;9.35;;;;;;;12.83;100.00;97380.91;5076832;28;20059;-94
2023/03/10 07:56:46;;;;;;;21.23;8.27;;;;;;;12.83;100.00;97383.56;5077513;28;20041;-93
2023/03/10 07:59:12;;;;;;;23.52;8.82;;;;;;;12.82;100.00;97384.53;5075339;28;20049;-95
2023/03/10 08:01:38;;;;;;;23.83;9.80;;;;;;;12.76;100.00;97392.91;5078879;28;20045;-93
2023/03/10 08:04:06;;;;;;;27.42;8.25;;;;;;;12.67;100.00;97383.63;5078663;28;20048;-94
2023/03/10 08:06:34;;;;;;;27.00;8.60;;;;;;;12.66;100.00;97387.22;5079723;28;20033;-91
2023/03/10 08:09:02;;;;;;;20.23;8.40;;;;;;;12.56;100.00;97370.91;5073579;28;20112;-94
2023/03/10 08:11:28;;;;;;;22.38;8.02;;;;;;;12.54;100.00;97365.66;5078077;28;20041;-93
2023/03/10 08:13:54;;;;;;;22.48;7.82;;;;;;;12.66;100.00;97381.88;5077070;28;20053;-93
2023/03/10 08:16:21;;;;;;;19.45;8.30;;;;;;;12.64;100.00;97378.44;5076063;28;20040;-94
2023/03/10 08:18:49;;;;;;;23.58;7.53;;;;;;;12.59;100.00;97376.03;5076947;28;20060;-92
2023/03/10 08:21:14;;;;;;;20.15;6.97;;;;;;;12.73;100.00;97388.59;5076708;28;20063;-94
2023/03/10 08:23:40;;;;;;;20.63;7.82;;;;;;;12.57;100.00;97358.41;5077307;28;20075;-95
2023/03/10 08:26:12;;;;;;;27.38;7.80;;;;;;;12.67;100.00;97384.47;5077672;28;20049;-95
2023/03/10 08:28:39;;;;;;;28.05;9.27;;;;;;;12.47;100.00;97358.97;5077630;28;20087;-92
2023/03/10 08:31:11;;;;;;;23.58;8.38;;;;;;;12.49;100.00;97353.50;5077273;28;20040;-94
2023/03/10 08:33:38;;;;;;;25.38;9.00;;;;;;;12.57;100.00;97361.94;5078116;28;20048;-95
2023/03/10 08:36:06;;;;;;;26.23;8.85;;;;;;;12.50;100.00;97366.75;5077783;28;20585;-93
2023/03/10 08:38:33;;;;;;;20.27;8.13;;;;;;;12.56;100.00;97352.25;5075487;28;20053;-94
2023/03/10 08:41:09;;;;;;;23.65;7.72;;;;;;;12.80;100.00;97373.09;5077475;28;20040;-93
2023/03/10 08:43:35;;;;;;;18.58;7.30;;;;;;;12.68;100.00;97358.66;5074727;28;20047;-92
2023/03/10 08:46:01;;;;;;;23.48;8.75;;;;;;;12.71;100.00;97343.34;5075067;28;20044;-93
2023/03/10 08:48:27;;;;;;;24.70;8.43;;;;;;;13.02;100.00;97368.22;5075861;28;20513;-93
2023/03/10 08:50:53;;;;;;;23.05;7.93;;;;;;;13.15;100.00;97355.84;5077211;28;20047;-92
2023/03/10 08:53:19;;;;;;;20.15;8.43;;;;;;;13.24;100.00;97361.59;5076212;28;20040;-94
2023/03/10 08:55:45;;;;;;;21.48;7.25;;;;;;;13.28;100.00;97364.00;5078007;28;20052;-95
2023/03/10 08:58:12;;;;;;;26.15;8.63;;;;;;;13.30;100.00;97343.41;5082263;28;20049;-92
2023/03/10 09:00:38;;;;;;;33.10;9.93;;;;;;;13.41;100.00;97398.84;5075387;28;20059;-93
2023/03/10 09:03:04;;;;;;;24.88;9.57;;;;;;;13.16;100.00;97354.03;5075530;28;20502;-95
2023/03/10 09:05:32;;;;;;;25.10;8.82;;;;;;;13.20;100.00;97366.25;5076102;28;20041;-94
2023/03/10 09:07:58;;;;;;;19.48;8.05;;;;;;;13.19;100.00;97383.22;5074560;28;20060;-94
2023/03/10 09:10:26;;;;;;;21.85;8.18;;;;;;;13.09;100.00;97360.69;5074309;28;20116;-93
2023/03/10 09:12:51;;;;;;;24.08;9.52;;;;;;;13.08;100.00;97367.84;5072602;28;20540;-95
2023/03/10 09:15:19;;;;;;;28.65;9.35;;;;;;;12.99;100.00;97370.19;5074432;28;20045;-93
2023/03/10 09:17:45;;;;;;;27.88;9.32;;;;;;;13.01;100.00;97389.63;5075111;28;20088;-93
2023/03/10 09:20:11;;;;;;;23.83;8.45;;;;;;;13.02;100.00;97384.22;5074205;28;20036;-94
2023/03/10 09:22:37;;;;;;;23.23;8.63;;;;;;;12.97;100.00;97369.41;5073216;28;20052;-94
2023/03/10 09:25:03;;;;;;;21.67;7.72;;;;;;;13.14;100.00;97374.59;5074093;28;20040;-94
2023/03/10 09:27:29;;;;;;;21.20;8.40;;;;;;;13.30;100.00;97367.44;5074640;28;20048;-94
2023/03/10 09:29:56;;;;;;;17.70;7.53;;;;;;;13.44;100.00;97336.38;5074074;28;20094;-95
2023/03/10 09:32:23;;;;;;;23.58;8.45;;;;;;;13.65;100.00;97345.72;5074710;28;20123;-94
2023/03/10 09:34:49;;;;;;;17.70;7.80;;;;;;;13.60;100.00;97347.84;5074194;28;20045;-95
2023/03/10 09:37:15;;;;;;;22.05;8.35;;;;;;;13.60;100.00;97339.81;5074379;28;20589;-92
2023/03/10 09:39:41;;;;;;;20.83;7.90;;;;;;;13.90;100.00;97354.84;5075436;28;20040;-93
2023/03/10 09:42:29;;;;;;;20.00;8.68;;;;;;;13.99;100.00;97338.25;5074838;28;20051;-92
2023/03/10 09:45:07;;;;;;;20.15;7.72;;;;;;;14.24;100.00;97329.50;5073996;28;20040;-95
2023/03/10 09:47:45;;;;;;;23.52;7.50;;;;;;;14.45;100.00;97343.31;5075560;28;20490;-92
2023/03/10 09:50:17;;;;;;;;;;;;;;;14.54;100.00;97345.38;5077923;28;20510;-94
2023/03/10 09:52:56;;;;;;;15.48;7.20;;;;;;;14.74;100.00;97313.78;5076796;28;20011;-93
2023/03/10 09:55:26;;;;;;;16.60;7.03;;;;;;;15.11;97.92;97301.41;5077952;28;20412;-96
2023/03/10 09:57:57;;;;;;;20.75;7.40;;;;;;;14.88;97.61;97304.84;5078194;28;20040;-92
2023/03/10 10:00:28;;;;;;;23.48;7.47;;;;;;;14.73;100.00;97314.75;5078398;28;20041;-93
2023/03/10 10:03:04;;;;;;;24.55;7.07;;;;;;;14.64;99.66;97301.97;5078168;28;20086;-92
2023/03/10 10:05:41;;;;;;;18.35;7.88;;;;;;;14.55;99.45;97293.63;5076701;28;20394;-91
2023/03/10 10:08:19;;;;;;;20.40;8.10;;;;;;;14.54;96.77;97325.78;5076784;28;20041;-91
2023/03/10 10:10:49;;;;;;;11.77;5.80;;;;;;;14.50;97.68;97330.47;5079880;28;20394;-94
2023/03/10 10:13:15;;;;;;;17.15;6.28;;;;;;;14.77;95.46;97309.09;5078322;28;20045;-91
2023/03/10 10:15:45;;;;;;;18.38;7.00;;;;;;;14.99;94.32;97297.78;5068946;28;20044;-91
2023/03/10 10:18:18;;;;;;;20.38;5.95;;;;;;;15.19;92.50;97298.22;5079144;28;20064;-94
2023/03/10 10:20:48;;;;;;;15.38;6.70;;;;;;;15.20;91.36;97294.56;5073413;28;20461;-96
2023/03/10 10:23:19;;;;;;;14.88;6.00;;;;;;;15.53;88.72;97277.13;5076166;28;20075;-92
2023/03/10 10:25:45;;;;;;;17.05;5.78;;;;;;;16.10;85.92;97273.06;5078473;28;20032;-93
2023/03/10 10:28:19;;;;;;;17.90;6.00;;;;;;;16.13;85.52;97240.63;5080252;28;20047;-93
2023/03/10 10:31:27;;;;;;;19.23;7.18;;;;;;;16.63;84.02;97260.13;5081616;28;20101;-93
2023/03/10 10:34:00;;;;;;;15.95;7.70;;;;;;;16.15;84.30;97247.59;5080092;28;20044;-96
2023/03/10 10:36:46;;;;;;;;;;;;;;;;;;;;;
2023/03/10 10:39:42;;;;;;;14.50;6.05;;;;;;;16.48;83.51;97211.19;5001368;28;20054;-94
2023/03/10 10:42:28;;;;;;;15.18;5.30;;;;;;;16.59;80.84;97211.22;5001240;28;20123;-94
2023/03/10 10:44:55;;;;;;;19.83;6.63;;;;;;;16.40;79.64;97186.75;5048150;28;20044;-95
2023/03/10 10:47:27;;;;;;;18.33;7.93;;;;;;;16.61;79.09;97185.13;5080335;28;20155;-93
2023/03/10 10:50:08;;;;;;;13.98;5.32;;;;;;;16.53;76.65;97202.78;5083532;28;20072;-92
2023/03/10 10:52:34;;;;;;;15.52;5.38;;;;;;;16.30;75.49;97202.69;5078062;28;20052;-91
2023/03/10 10:55:01;;;;;;;20.92;6.10;;;;;;;16.29;73.60;97208.19;5077344;28;20045;-93
2023/03/10 10:57:31;;;;;;;15.60;4.95;;;;;;;16.37;74.78;97197.69;5075158;28;20029;-93
2023/03/10 11:00:17;;;;;;;31.02;5.38;;;;;;;16.35;72.76;97203.22;5074287;28;20071;-93
2023/03/10 11:02:43;;;;;;;8.32;3.63;;;;;;;16.47;63.90;97225.56;5071270;28;20044;-94
2023/03/10 11:05:16;;;;;;;7.25;2.83;;;;;;;16.60;59.69;97191.44;5076002;28;20049;-94
2023/03/10 11:07:43;;;;;;;7.40;2.88;;;;;;;17.06;56.03;97224.66;5076866;28;20605;-93
2023/03/10 11:10:12;;;;;;;13.25;2.78;;;;;;;16.93;53.69;97205.94;5075413;28;20453;-92
2023/03/10 11:12:53;;;;;;;12.88;3.75;;;;;;;17.14;52.70;97181.94;5074818;28;20063;-92
2023/03/10 11:15:25;;;;;;;11.55;3.95;;;;;;;17.53;53.04;97158.22;5068346;28;20425;-94
2023/03/10 11:17:55;;;;;;;9.00;3.53;;;;;;;17.91;54.18;97181.13;5074770;28;20064;-93
2023/03/10 11:20:27;;;;;;;10.05;3.90;;;;;;;17.70;52.52;97186.44;5074487;28;20112;-94
2023/03/10 11:23:03;;;;;;;12.48;3.60;;;;;;;17.53;52.30;97176.19;5072914;28;20131;-92
2023/03/10 11:25:34;;;;;;;6.07;2.58;;;;;;;17.40;53.09;97189.75;5072201;28;20095;-93
2023/03/10 11:28:17;;;;;;;12.50;3.17;;;;;;;17.00;53.26;97177.66;5073251;28;20037;-92